Terminal Aerodrome Forecast
Issued by NWS

Home | Current Version | Previous Version | Text Only | Print | Product List | Glossary On
Versions: 1 2 3 4 5 6 7 8 9 10 11 12 13 14 15 16 17
253
FTUS42 KTBW 282327
TAFPIE
TAF
KPIE 282327Z 2900/2924 07007KT P6SM VCSH SCT040 BKN110
     FM290300 09012G17KT P6SM FEW100 SCT200
     FM291500 08010G15KT P6SM SCT060 BKN110
     FM291800 08011KT P6SM VCTS BKN035CB BKN100=

USA.gov is the U.S. government's official web portal to all federal, state and local government web resources and services.